ローマ/フィウミチーノ の空港の天気 - METARとTAF

ローマ・レオナルド・ダ・ビンチ国際空港 ( LIRF / FCO ) - イタリア ローマ
飛行場実況気象(Metar)
観測時間01/23 06:20 CET (01/23 05:20 UTC)
風向・風速北東 3m/s
視程10km以上
天気現象
少しの雲 雲底高度 760m
気温8℃
湿度81%
気圧1016hPa
METARLIRF 230520Z 04005KT 9999 FEW025 08/05 Q1016 NOSIG
過去の天気等 Google飛行場航空写真 Wunderground天気予報

過去48時間のMETAR

飛行場予報(TAF)
発表時間: 1/23 06:00 CET (1/23 05:00 UTC)
予報対象時間: 23日7時 CET ~ 24日13時 CET
風向・風速北北東 5m/s
視程10km以上
全天の4割程度の雲 雲底高度 910m
23日13時 CET ~ 23日15時 CET に徐々に
風向・風速東南東 5m/s
23日21時 CET ~ 23日23時 CET に徐々に
風向・風速北東 4m/s
TAF LIRF 230500Z 2306/2412 03009KT 9999 SCT030
BECMG 2312/2314 12010KT
BECMG 2320/2322 04007KT